Time;durP1;ratioP1;P1;durP2;ratioP2;P2;SDS_P1;SDS_P2;PMS_P1;PMS_P2;Temp;Humidity;BMP_temperature;BMP_pressure;BME280_temperature;BME280_humidity;BME280_pressure;Samples;Min_cycle;Max_cycle;Signal;HPM_P1;HPM_P2
2023/05/23 00:01:36;;;;;;;1999.90;999.90;;;;;;;17.84;100.00;94992.44;5048138;28;20247;-65
2023/05/23 00:04:02;;;;;;;1999.90;999.90;;;;;;;17.79;100.00;94984.78;5067240;28;20207;-65
2023/05/23 00:06:28;;;;;;;1999.90;999.90;;;;;;;17.77;100.00;94981.72;5050902;28;20217;-64
2023/05/23 00:08:53;;;;;;;1999.90;999.90;;;;;;;17.75;100.00;94984.94;5067153;28;20201;-64
2023/05/23 00:11:19;;;;;;;1999.90;999.90;;;;;;;17.76;100.00;94980.16;5067042;28;20316;-65
2023/05/23 00:13:45;;;;;;;1999.90;999.90;;;;;;;17.74;100.00;94982.63;5067254;28;20200;-65
2023/05/23 00:16:10;;;;;;;1999.90;999.90;;;;;;;17.71;100.00;94995.38;5067094;28;20194;-65
2023/05/23 00:18:37;;;;;;;1999.90;999.90;;;;;;;17.64;100.00;94989.34;5050475;28;20201;-65
2023/05/23 00:21:02;;;;;;;1999.90;999.90;;;;;;;17.60;100.00;94991.50;5067511;28;20193;-67
2023/05/23 00:23:28;;;;;;;1999.90;999.90;;;;;;;17.61;100.00;94990.28;5067172;28;20248;-64
2023/05/23 00:25:54;;;;;;;1999.90;999.90;;;;;;;17.62;100.00;94995.34;5067111;28;20194;-66
2023/05/23 00:28:21;;;;;;;1999.90;999.90;;;;;;;17.61;100.00;94990.28;5050676;28;20170;-65
2023/05/23 00:30:47;;;;;;;1999.90;999.90;;;;;;;17.60;100.00;94991.50;5050595;28;20224;-66
2023/05/23 00:33:15;;;;;;;1999.90;999.90;;;;;;;17.61;100.00;94995.78;5067314;28;20198;-66
2023/05/23 00:35:41;;;;;;;1999.90;999.90;;;;;;;17.62;100.00;94989.03;5066704;28;20196;-66
2023/05/23 00:38:06;;;;;;;1999.90;999.90;;;;;;;17.67;100.00;94988.44;5066750;28;20221;-66
2023/05/23 00:40:33;;;;;;;1999.90;999.90;;;;;;;17.68;100.00;94985.22;5050301;28;20197;-65
2023/05/23 00:42:59;;;;;;;1999.90;999.90;;;;;;;17.71;100.00;94986.31;5066828;28;20190;-66
2023/05/23 00:45:25;;;;;;;1999.90;999.90;;;;;;;17.74;100.00;94993.69;5066641;28;20196;-64
2023/05/23 00:47:51;;;;;;;1999.90;999.90;;;;;;;17.78;100.00;94994.28;5050366;28;20190;-65
2023/05/23 00:50:17;;;;;;;1999.90;999.90;;;;;;;17.77;100.00;94990.00;5066579;28;20198;-64
2023/05/23 00:52:44;;;;;;;1999.90;999.90;;;;;;;17.77;100.00;94990.00;5066483;28;20189;-66
2023/05/23 00:55:11;;;;;;;1999.90;999.90;;;;;;;17.78;100.00;94988.75;5066611;28;20296;-67
2023/05/23 00:57:39;;;;;;;1999.90;999.90;;;;;;;17.77;100.00;94992.75;5066327;28;20166;-64
2023/05/23 01:00:07;;;;;;;1999.90;999.90;;;;;;;17.80;100.00;94991.81;5066833;28;20190;-65
2023/05/23 01:02:35;;;;;;;1999.90;999.90;;;;;;;17.85;100.00;94997.50;5066161;28;20201;-67
2023/05/23 01:05:01;;;;;;;1999.90;999.90;;;;;;;17.86;100.00;94996.31;5066123;28;20205;-63
2023/05/23 01:07:27;;;;;;;1999.90;999.90;;;;;;;17.87;100.00;94994.28;5049302;28;20288;-63
2023/05/23 01:09:52;;;;;;;1999.90;999.90;;;;;;;17.85;100.00;94994.00;5065803;28;20197;-63
2023/05/23 01:12:39;;;;;;;1999.90;999.90;;;;;;;17.87;100.00;94997.03;5066534;28;20251;-63
2023/05/23 01:15:15;;;;;;;1999.90;999.90;;;;;;;17.89;100.00;95000.13;5049381;28;20198;-63
2023/05/23 01:17:40;;;;;;;1999.90;999.90;;;;;;;17.89;100.00;95000.88;5049205;28;20208;-64
2023/05/23 01:20:11;;;;;;;1999.90;999.90;;;;;;;17.90;100.00;95007.19;5050011;28;20177;-64
2023/05/23 01:23:06;;;;;;;1999.90;999.90;;;;;;;17.89;100.00;95005.66;5066373;28;20205;-64
2023/05/23 01:25:31;;;;;;;1999.90;999.90;;;;;;;17.89;100.00;95013.94;5049331;28;20202;-63
2023/05/23 01:28:00;;;;;;;1999.90;999.90;;;;;;;17.89;100.00;95016.72;5049346;28;20274;-64
2023/05/23 01:30:29;;;;;;;1999.90;999.90;;;;;;;17.92;100.00;95015.78;5065789;28;20221;-63
2023/05/23 01:32:56;;;;;;;1999.90;999.90;;;;;;;17.90;100.00;95018.22;5066175;28;20197;-63
2023/05/23 01:35:25;;;;;;;1999.90;999.90;;;;;;;17.87;100.00;95010.88;5065810;28;20201;-62
2023/05/23 01:37:52;;;;;;;1999.90;999.90;;;;;;;17.86;100.00;95017.63;5065767;28;20201;-63
2023/05/23 01:40:18;;;;;;;1999.90;999.90;;;;;;;17.89;100.00;95013.94;5065657;28;20190;-63
2023/05/23 01:42:43;;;;;;;1999.90;999.90;;;;;;;17.93;100.00;95006.28;5048902;28;20251;-63
2023/05/23 01:45:10;;;;;;;1999.90;999.90;;;;;;;17.90;100.00;95007.97;5065875;28;20272;-64
2023/05/23 01:47:36;;;;;;;1999.90;999.90;;;;;;;17.91;100.00;95011.47;5048746;28;20193;-64
2023/05/23 01:50:02;;;;;;;1999.90;999.90;;;;;;;17.91;100.00;95019.75;5065288;28;20225;-63
2023/05/23 01:52:28;;;;;;;1999.90;999.90;;;;;;;17.89;100.00;95016.72;5065260;28;20190;-64
2023/05/23 01:54:55;;;;;;;1999.90;999.90;;;;;;;17.82;100.00;95017.00;5065358;28;20201;-65
2023/05/23 01:57:21;;;;;;;1999.90;999.90;;;;;;;17.87;100.00;95021.91;5065133;28;20198;-63
2023/05/23 01:59:47;;;;;;;1999.90;999.90;;;;;;;17.88;100.00;95026.97;5065138;28;20194;-63
2023/05/23 02:02:12;;;;;;;1999.90;999.90;;;;;;;17.86;100.00;95023.94;5065256;28;20267;-63
2023/05/23 02:04:37;;;;;;;1999.90;999.90;;;;;;;17.84;100.00;95025.59;5065671;28;20208;-63
2023/05/23 02:07:03;;;;;;;1999.90;999.90;;;;;;;17.85;100.00;95027.91;5065321;28;20287;-63
2023/05/23 02:09:28;;;;;;;1999.90;999.90;;;;;;;17.90;100.00;95026.53;5048582;28;20209;-63
2023/05/23 02:11:54;;;;;;;1999.90;999.90;;;;;;;17.86;100.00;95028.69;5065068;28;20193;-63
2023/05/23 02:14:20;;;;;;;1999.90;999.90;;;;;;;17.84;100.00;95034.66;5048690;28;20194;-63
2023/05/23 02:16:45;;;;;;;1999.90;999.90;;;;;;;17.81;100.00;95034.81;5065254;28;20201;-63
2023/05/23 02:19:10;;;;;;;1999.90;999.90;;;;;;;17.80;100.00;95033.25;5065009;28;20197;-64
2023/05/23 02:21:37;;;;;;;1999.90;999.90;;;;;;;17.76;100.00;95024.34;5064683;28;20255;-63
2023/05/23 02:24:02;;;;;;;1999.90;999.90;;;;;;;17.74;100.00;95040.63;5064560;28;20217;-63
2023/05/23 02:26:27;;;;;;;1999.90;999.90;;;;;;;17.71;100.00;95044.31;5047522;28;20200;-64
2023/05/23 02:28:53;;;;;;;1999.90;999.90;;;;;;;17.63;100.00;95034.78;5064594;28;20228;-63
2023/05/23 02:31:18;;;;;;;1999.90;999.90;;;;;;;17.59;100.00;95036.91;5064429;28;20217;-63
2023/05/23 02:33:44;;;;;;;1999.90;999.90;;;;;;;17.50;100.00;95040.44;5064661;28;20217;-64
2023/05/23 02:36:09;;;;;;;1999.90;999.90;;;;;;;17.46;100.00;95033.50;5064395;28;20204;-65
2023/05/23 02:38:34;;;;;;;1999.90;999.90;;;;;;;17.42;100.00;95033.66;5065193;28;20205;-66
2023/05/23 02:41:00;;;;;;;1999.90;999.90;;;;;;;17.42;100.00;95038.41;5047624;28;20194;-65
2023/05/23 02:43:25;;;;;;;1999.90;999.90;;;;;;;17.40;100.00;95040.81;5048267;28;20184;-65
2023/05/23 02:45:50;;;;;;;1999.90;999.90;;;;;;;17.34;100.00;95048.16;5064517;28;20225;-64
2023/05/23 02:48:16;;;;;;;1999.90;999.90;;;;;;;17.27;100.00;95042.94;5063934;28;20198;-65
2023/05/23 02:50:41;;;;;;;1999.90;999.90;;;;;;;17.24;100.00;95044.59;5048095;28;20213;-64
2023/05/23 02:53:07;;;;;;;1999.90;999.90;;;;;;;17.16;100.00;95048.88;5064237;28;20272;-63
2023/05/23 02:55:32;;;;;;;1999.90;999.90;;;;;;;17.11;100.00;95051.47;5047665;28;20189;-63
2023/05/23 02:57:57;;;;;;;1999.90;999.90;;;;;;;17.09;100.00;95051.13;5063975;28;20189;-64
2023/05/23 03:00:23;;;;;;;1999.90;999.90;;;;;;;17.05;100.00;95042.22;5064171;28;20194;-64
2023/05/23 03:02:49;;;;;;;1999.90;999.90;;;;;;;16.96;100.00;95042.94;5063957;28;20197;-63
2023/05/23 03:05:14;;;;;;;1999.90;999.90;;;;;;;16.89;100.00;95040.44;5047892;28;20263;-63
2023/05/23 03:07:39;;;;;;;1999.90;999.90;;;;;;;16.90;100.00;95038.47;5063961;28;20190;-63
2023/05/23 03:10:06;;;;;;;1999.90;999.90;;;;;;;16.85;100.00;95033.53;5063798;28;20190;-63
2023/05/23 03:12:31;;;;;;;1999.90;999.90;;;;;;;16.83;100.00;95033.22;5064218;28;20240;-63
2023/05/23 03:14:56;;;;;;;1999.90;999.90;;;;;;;16.67;100.00;95027.94;5064338;28;20170;-63
2023/05/23 03:17:24;;;;;;;1999.90;999.90;;;;;;;16.64;100.00;95028.84;5063744;28;20194;-63
2023/05/23 03:19:49;;;;;;;1999.90;999.90;;;;;;;16.66;100.00;95027.16;5063673;28;20239;-63
2023/05/23 03:22:15;;;;;;;1999.90;999.90;;;;;;;16.69;100.00;95019.97;5047259;28;20213;-64
2023/05/23 03:24:40;;;;;;;1999.90;999.90;;;;;;;16.65;100.00;95020.13;5063825;28;20197;-64
2023/05/23 03:27:05;;;;;;;1999.90;999.90;;;;;;;16.66;100.00;95020.88;5063827;28;20189;-64
2023/05/23 03:29:31;;;;;;;1999.90;999.90;;;;;;;16.66;100.00;95018.88;5063677;28;20189;-64
2023/05/23 03:31:57;;;;;;;1999.90;999.90;;;;;;;16.67;100.00;95014.16;5064037;28;20224;-64
2023/05/23 03:34:22;;;;;;;1999.90;999.90;;;;;;;16.70;100.00;95016.75;5046928;28;20196;-63
2023/05/23 03:36:48;;;;;;;1999.90;999.90;;;;;;;16.78;100.00;95017.28;5066215;28;20192;-63
2023/05/23 03:39:13;;;;;;;1999.90;999.90;;;;;;;16.77;100.00;95021.22;5053753;28;20182;-64
2023/05/23 03:41:38;;;;;;;1999.90;999.90;;;;;;;16.82;100.00;95028.94;5053557;28;20188;-64
2023/05/23 03:44:04;;;;;;;1999.90;999.90;;;;;;;16.88;100.00;95024.34;5070047;28;20195;-64
2023/05/23 03:46:29;;;;;;;1999.90;999.90;;;;;;;16.90;100.00;95021.91;5070121;28;20237;-64
2023/05/23 03:48:55;;;;;;;1999.90;999.90;;;;;;;16.97;100.00;95018.91;5070591;28;20185;-64
2023/05/23 03:51:20;;;;;;;1999.90;999.90;;;;;;;16.97;100.00;95007.84;5070437;28;20205;-64
2023/05/23 03:53:46;;;;;;;1999.90;999.90;;;;;;;16.99;100.00;95016.44;5070234;28;20200;-64
2023/05/23 03:56:11;;;;;;;1999.90;999.90;;;;;;;17.04;100.00;95022.13;5053762;28;20193;-65
2023/05/23 03:58:36;;;;;;;1999.90;999.90;;;;;;;17.08;100.00;95027.53;5069715;28;20189;-64
2023/05/23 04:01:02;;;;;;;1999.90;999.90;;;;;;;17.09;100.00;95021.56;5053352;28;20272;-64
2023/05/23 04:03:31;;;;;;;1999.90;999.90;;;;;;;17.12;100.00;95026.13;5069949;28;20281;-63
2023/05/23 04:05:57;;;;;;;1999.90;999.90;;;;;;;17.11;100.00;95021.84;5069976;28;20192;-64
2023/05/23 04:08:23;;;;;;;1999.90;999.90;;;;;;;17.16;100.00;95026.00;5070404;28;20209;-63
2023/05/23 04:10:48;;;;;;;1999.90;999.90;;;;;;;17.23;100.00;95032.00;5053424;28;20233;-64
2023/05/23 04:13:14;;;;;;;1999.90;999.90;;;;;;;17.29;100.00;95034.94;5053613;28;20194;-64
2023/05/23 04:15:43;;;;;;;1999.90;999.90;;;;;;;17.33;100.00;95038.34;5070462;28;20248;-64
2023/05/23 04:18:09;;;;;;;1999.90;999.90;;;;;;;17.37;100.00;95041.75;5070504;28;20257;-64
2023/05/23 04:20:34;;;;;;;1999.90;999.90;;;;;;;17.47;100.00;95035.03;5053875;28;20208;-64
2023/05/23 04:22:59;;;;;;;1999.90;999.90;;;;;;;17.57;100.00;95039.38;5052965;28;20189;-65
2023/05/23 04:25:25;;;;;;;1999.90;999.90;;;;;;;17.79;100.00;95045.53;5070052;28;20204;-64
2023/05/23 04:27:53;;;;;;;1999.90;999.90;;;;;;;17.98;100.00;95053.41;5070012;28;20194;-64
2023/05/23 04:30:18;;;;;;;1999.90;999.90;;;;;;;18.15;100.00;95073.22;5069829;28;20258;-65
2023/05/23 04:32:44;;;;;;;1999.90;999.90;;;;;;;18.16;100.00;95080.28;5069720;28;20194;-63
2023/05/23 04:35:10;;;;;;;1999.90;999.90;;;;;;;18.18;100.00;95089.66;5070014;28;20212;-63
2023/05/23 04:37:36;;;;;;;1999.90;999.90;;;;;;;18.19;100.00;95090.44;5069706;28;20190;-63
2023/05/23 04:40:02;;;;;;;1999.90;999.90;;;;;;;18.23;100.00;95099.34;5069847;28;20239;-63
2023/05/23 04:42:28;;;;;;;1999.90;999.90;;;;;;;18.19;100.00;95090.44;5069988;28;20208;-64
2023/05/23 04:44:56;;;;;;;1999.90;999.90;;;;;;;18.05;100.00;95096.56;5069559;28;20170;-62
2023/05/23 04:47:23;;;;;;;1999.90;999.90;;;;;;;18.01;100.00;95095.94;5069670;28;20193;-63
2023/05/23 04:49:49;;;;;;;1999.90;999.90;;;;;;;17.98;100.00;95089.34;5049337;28;20221;-62
2023/05/23 04:52:17;;;;;;;1999.90;999.90;;;;;;;17.92;100.00;95087.63;5049818;28;20282;-64
2023/05/23 04:54:45;;;;;;;1999.90;999.90;;;;;;;17.87;100.00;95085.47;5066649;28;20212;-62
2023/05/23 04:57:11;;;;;;;1999.90;999.90;;;;;;;17.90;100.00;95090.06;5050081;28;20223;-63
2023/05/23 04:59:37;;;;;;;1999.90;999.90;;;;;;;17.86;100.00;95078.41;5066693;28;20304;-63
2023/05/23 05:02:04;;;;;;;1999.90;999.90;;;;;;;17.87;100.00;95085.47;5066284;28;20194;-63
2023/05/23 05:04:30;;;;;;;1999.90;999.90;;;;;;;17.88;100.00;95076.72;5049835;28;20256;-64
2023/05/23 05:06:56;;;;;;;1999.90;999.90;;;;;;;17.91;100.00;95083.31;5049700;28;20232;-63
2023/05/23 05:09:21;;;;;;;1999.90;999.90;;;;;;;18.01;100.00;95095.94;5066156;28;20244;-63
2023/05/23 05:11:47;;;;;;;1999.90;999.90;;;;;;;18.04;100.00;95093.03;5066036;28;20213;-63
2023/05/23 05:14:12;;;;;;;1999.90;999.90;;;;;;;18.08;100.00;95093.66;5066393;28;20243;-64
2023/05/23 05:16:38;;;;;;;1999.90;999.90;;;;;;;18.19;100.00;95090.44;5066503;28;20193;-64
2023/05/23 05:19:04;;;;;;;1999.90;999.90;;;;;;;18.28;100.00;95090.44;5049583;28;20193;-63
2023/05/23 05:21:30;;;;;;;1999.90;999.90;;;;;;;18.41;100.00;95096.63;5049147;28;20255;-63
2023/05/23 05:23:56;;;;;;;1999.90;999.90;;;;;;;18.42;100.00;95095.38;5066220;28;20193;-63
2023/05/23 05:26:22;;;;;;;1999.90;999.90;;;;;;;18.50;100.00;95102.16;5048923;28;20210;-65
2023/05/23 05:28:47;;;;;;;1999.90;999.90;;;;;;;18.65;100.00;95090.00;5049191;28;20264;-64
2023/05/23 05:31:14;;;;;;;1999.90;999.90;;;;;;;18.89;100.00;95106.72;5049068;28;20213;-64
2023/05/23 05:33:40;;;;;;;1999.90;999.90;;;;;;;19.08;100.00;95109.00;5065743;28;20194;-64
2023/05/23 05:36:06;;;;;;;1999.90;999.90;;;;;;;19.61;100.00;95109.31;5066069;28;20204;-64
2023/05/23 05:38:32;;;;;;;1999.90;999.90;;;;;;;20.00;100.00;95108.22;5065402;28;20193;-64
2023/05/23 05:40:57;;;;;;;1999.90;999.90;;;;;;;20.23;100.00;95104.69;5049230;28;20201;-64
2023/05/23 05:43:22;;;;;;;1999.90;999.90;;;;;;;20.39;100.00;95111.84;5048686;28;20200;-64
2023/05/23 05:45:48;;;;;;;1999.90;999.90;;;;;;;20.50;100.00;95112.81;5065798;28;20276;-63
2023/05/23 05:48:13;;;;;;;1999.90;999.90;;;;;;;20.72;100.00;95112.50;5049037;28;20189;-65
2023/05/23 05:50:39;;;;;;;1999.90;999.90;;;;;;;20.99;100.00;95118.59;5065385;28;20232;-65
2023/05/23 05:53:04;;;;;;;1999.90;999.90;;;;;;;21.01;100.00;95118.88;5049220;28;20193;-62
2023/05/23 05:55:29;;;;;;;1999.90;999.90;;;;;;;21.53;100.00;95115.22;5048184;28;20201;-64
2023/05/23 05:57:55;;;;;;;1999.90;999.90;;;;;;;22.12;100.00;95121.47;5065232;28;20279;-63
2023/05/23 06:00:20;;;;;;;1999.90;999.90;;;;;;;22.64;100.00;95122.44;5064900;28;20212;-66
2023/05/23 06:02:46;;;;;;;1999.90;999.90;;;;;;;22.89;100.00;95122.50;5048282;28;20206;-63
2023/05/23 06:05:13;;;;;;;1999.90;999.90;;;;;;;22.91;100.00;95127.56;5064973;28;20328;-63
2023/05/23 06:07:39;;;;;;;1999.90;999.90;;;;;;;22.89;100.00;95133.63;5064705;28;20261;-63
2023/05/23 06:10:05;;;;;;;1999.90;999.90;;;;;;;23.01;100.00;95129.72;5064944;28;20197;-65
2023/05/23 06:12:31;;;;;;;1999.90;999.90;;;;;;;23.11;100.00;95128.31;5064905;28;20198;-63
2023/05/23 06:14:56;;;;;;;1999.90;999.90;;;;;;;24.34;100.00;95131.63;5047919;28;20177;-64
2023/05/23 06:17:22;;;;;;;1999.90;999.90;;;;;;;24.60;100.00;95132.28;5064890;28;20197;-62
2023/05/23 06:19:47;;;;;;;1999.90;999.90;;;;;;;25.10;100.00;95127.69;5064846;28;20263;-63
2023/05/23 06:22:13;;;;;;;1999.90;999.90;;;;;;;25.89;100.00;95125.25;5064870;28;20200;-62
2023/05/23 06:24:38;;;;;;;1999.90;999.90;;;;;;;26.19;100.00;95126.28;5064874;28;20193;-64
2023/05/23 06:27:03;;;;;;;1999.90;999.90;;;;;;;26.68;100.00;95128.22;5064547;28;20208;-66
2023/05/23 06:29:30;;;;;;;1999.90;999.90;;;;;;;26.62;100.00;95121.84;5064199;28;20198;-66
2023/05/23 06:31:55;;;;;;;1999.90;999.90;;;;;;;25.81;100.00;95135.41;5064603;28;20240;-65
2023/05/23 06:34:21;;;;;;;1999.90;999.90;;;;;;;26.35;100.00;95125.47;5047532;28;20194;-66
2023/05/23 06:36:47;;;;;;;1999.90;999.90;;;;;;;26.55;100.00;95127.94;5064156;28;20208;-65
2023/05/23 06:39:12;;;;;;;1999.90;999.90;;;;;;;27.44;100.00;95126.34;5064167;28;20193;-64
2023/05/23 06:41:38;;;;;;;1999.90;999.90;;;;;;;27.69;100.00;95122.34;5047410;28;20220;-62
2023/05/23 06:44:03;;;;;;;1999.90;999.90;;;;;;;27.61;100.00;95132.56;5047686;28;20224;-62
2023/05/23 06:46:29;;;;;;;1999.90;999.90;;;;;;;28.26;100.00;95130.53;5064106;28;20178;-62
2023/05/23 06:48:54;;;;;;;1999.90;999.90;;;;;;;28.23;100.00;95128.78;5064517;28;20194;-63
2023/05/23 06:51:20;;;;;;;1999.90;999.90;;;;;;;27.65;100.00;95130.25;5064356;28;20273;-64
2023/05/23 06:53:45;;;;;;;1999.90;999.90;;;;;;;27.92;100.00;95140.56;5064125;28;20225;-63
2023/05/23 06:56:10;;;;;;;1999.90;999.90;;;;;;;28.64;100.00;95131.47;5064073;28;20201;-64
2023/05/23 06:58:36;;;;;;;1999.90;999.90;;;;;;;28.38;100.00;95143.19;5064112;28;20235;-63
2023/05/23 07:01:01;;;;;;;1999.90;999.90;;;;;;;28.16;100.00;95146.19;5063928;28;20243;-59
2023/05/23 07:03:26;;;;;;;1999.90;999.90;;;;;;;28.55;100.00;95147.94;5063968;28;20240;-59
2023/05/23 07:05:52;;;;;;;1999.90;999.90;;;;;;;29.75;100.00;95148.47;5064088;28;20189;-59
2023/05/23 07:08:17;;;;;;;1999.90;999.90;;;;;;;28.66;100.00;95142.19;5063920;28;20197;-59
2023/05/23 07:10:42;;;;;;;1999.90;999.90;;;;;;;27.87;100.00;95143.41;5064063;28;20247;-59
2023/05/23 07:13:08;;;;;;;1999.90;999.90;;;;;;;27.22;100.00;95148.91;5063485;28;20269;-58
2023/05/23 07:15:33;;;;;;;1999.90;999.90;;;;;;;26.03;100.00;95151.50;5064013;28;20200;-59
2023/05/23 07:17:59;;;;;;;1999.90;999.90;;;;;;;26.08;100.00;95150.72;5063849;28;20177;-61
2023/05/23 07:20:24;;;;;;;1999.90;999.90;;;;;;;25.62;100.00;95148.38;5047615;28;20260;-61
2023/05/23 07:22:50;;;;;;;1999.90;999.90;;;;;;;26.41;100.00;95145.84;5063997;28;20193;-61
2023/05/23 07:25:16;;;;;;;1999.90;999.90;;;;;;;26.42;100.00;95158.56;5063828;28;20193;-62
2023/05/23 07:27:41;;;;;;;1999.90;999.90;;;;;;;26.64;100.00;95160.56;5063616;28;20269;-62
2023/05/23 07:30:08;;;;;;;1999.90;999.90;;;;;;;25.83;100.00;95163.69;5046986;28;20193;-62
2023/05/23 07:32:34;;;;;;;1999.90;999.90;;;;;;;25.12;100.00;95162.25;5063646;28;20198;-61
2023/05/23 07:35:00;;;;;;;1999.90;999.90;;;;;;;25.20;100.00;95168.09;5063795;28;20244;-62
2023/05/23 07:37:26;;;;;;;1999.90;999.90;;;;;;;25.06;100.00;95164.25;5063407;28;20197;-61
2023/05/23 07:39:52;;;;;;;1999.90;999.90;;;;;;;25.07;100.00;95165.03;5063580;28;20239;-61
2023/05/23 07:42:17;;;;;;;1999.90;999.90;;;;;;;24.47;100.00;95159.91;5063290;28;20197;-62
2023/05/23 07:44:42;;;;;;;1999.90;999.90;;;;;;;24.22;100.00;95163.56;5063496;28;20200;-62
2023/05/23 07:47:08;;;;;;;1999.90;999.90;;;;;;;24.05;100.00;95165.44;5063395;28;20201;-62
2023/05/23 07:49:34;;;;;;;1999.90;999.90;;;;;;;23.49;100.00;95163.44;5064132;28;20172;-61
2023/05/23 07:51:59;;;;;;;1999.90;999.90;;;;;;;23.75;100.00;95162.13;5063820;28;20215;-62
2023/05/23 07:54:25;;;;;;;1999.90;999.90;;;;;;;24.27;100.00;95162.81;5063991;28;20277;-59
2023/05/23 07:56:52;;;;;;;1999.90;999.90;;;;;;;24.36;100.00;95162.63;5063755;28;20193;-63
2023/05/23 07:59:18;;;;;;;1999.90;999.90;;;;;;;24.31;100.00;95169.69;5063325;28;20194;-63
2023/05/23 08:01:43;;;;;;;1999.90;999.90;;;;;;;24.20;100.00;95160.47;5046955;28;20198;-62
2023/05/23 08:04:09;;;;;;;1999.90;999.90;;;;;;;23.91;100.00;95163.53;5063551;28;20205;-56
2023/05/23 08:06:34;;;;;;;1999.90;999.90;;;;;;;23.66;100.00;95172.69;5046814;28;20215;-58
2023/05/23 08:09:00;;;;;;;1999.90;999.90;;;;;;;23.68;100.00;95170.97;5046764;28;20197;-56
2023/05/23 08:11:27;;;;;;;1999.90;999.90;;;;;;;23.53;100.00;95175.13;5063816;28;20216;-56
2023/05/23 08:13:53;;;;;;;1999.90;999.90;;;;;;;23.74;100.00;95182.19;5046819;28;20262;-58
2023/05/23 08:16:18;;;;;;;1999.90;999.90;;;;;;;23.53;100.00;95181.44;5046616;28;20197;-58
2023/05/23 08:18:44;;;;;;;1999.90;999.90;;;;;;;23.13;100.00;95169.63;5046779;28;20185;-58
2023/05/23 08:21:09;;;;;;;1999.90;999.90;;;;;;;23.18;100.00;95182.84;5063483;28;20228;-57
2023/05/23 08:23:34;;;;;;;1999.90;999.90;;;;;;;23.40;100.00;95188.66;5047825;28;20216;-57
2023/05/23 08:26:00;;;;;;;1999.90;999.90;;;;;;;23.30;100.00;95187.31;5067348;28;20221;-57
2023/05/23 08:28:25;;;;;;;1999.90;999.90;;;;;;;22.92;100.00;95184.81;5067311;28;20201;-57
2023/05/23 08:30:51;;;;;;;1999.90;999.90;;;;;;;22.60;100.00;95194.28;5066604;28;20209;-58
2023/05/23 08:33:16;;;;;;;1999.90;999.90;;;;;;;22.51;100.00;95188.84;5066782;28;20221;-59
2023/05/23 08:35:41;;;;;;;1999.90;999.90;;;;;;;22.58;100.00;95191.22;5050102;28;20193;-56
2023/05/23 08:38:08;;;;;;;1999.90;999.90;;;;;;;22.39;100.00;95199.78;5066862;28;20273;-58
2023/05/23 08:40:35;;;;;;;1999.90;999.90;;;;;;;22.52;100.00;95198.72;5050193;28;20198;-58
2023/05/23 08:43:00;;;;;;;1999.90;999.90;;;;;;;22.43;100.00;95194.78;5050835;28;20222;-56
2023/05/23 08:45:29;;;;;;;1999.90;999.90;;;;;;;22.48;100.00;95199.69;5049907;28;20201;-58
2023/05/23 08:47:55;;;;;;;1999.90;999.90;;;;;;;22.89;100.00;95203.28;5049741;28;20198;-58
2023/05/23 08:50:20;;;;;;;1999.90;999.90;;;;;;;22.99;100.00;95204.69;5066361;28;20198;-58
2023/05/23 08:52:58;;;;;;;1999.90;999.90;;;;;;;22.85;100.00;95204.72;5050330;28;20264;-58
2023/05/23 08:55:27;;;;;;;1999.90;999.90;;;;;;;23.00;100.00;95199.84;5066787;28;20208;-58
2023/05/23 08:57:53;;;;;;;1999.90;999.90;;;;;;;23.20;100.00;95208.94;5066336;28;20194;-58
2023/05/23 09:00:19;;;;;;;1999.90;999.90;;;;;;;23.11;100.00;95200.75;5066271;28;20209;-59
2023/05/23 09:02:45;;;;;;;1999.90;999.90;;;;;;;23.27;100.00;95200.19;5066203;28;20212;-58
2023/05/23 09:05:12;;;;;;;1999.90;999.90;;;;;;;23.08;100.00;95206.56;5066291;28;20285;-58
2023/05/23 09:07:38;;;;;;;1999.90;999.90;;;;;;;23.34;100.00;95207.38;5066138;28;20204;-58
2023/05/23 09:10:06;;;;;;;1999.90;999.90;;;;;;;23.48;100.00;95204.47;5066652;28;20201;-57
2023/05/23 09:12:32;;;;;;;1999.90;999.90;;;;;;;23.55;100.00;95206.06;5066729;28;20213;-65
2023/05/23 09:14:57;;;;;;;1999.90;999.90;;;;;;;23.65;100.00;95207.44;5066022;28;20201;-65
2023/05/23 09:17:23;;;;;;;1999.90;999.90;;;;;;;24.07;100.00;95202.00;5049777;28;20239;-63
2023/05/23 09:19:48;;;;;;;1999.90;999.90;;;;;;;25.24;100.00;95208.53;5066458;28;20198;-63
2023/05/23 09:22:14;;;;;;;1999.90;999.90;;;;;;;25.70;100.00;95210.22;5066499;28;20198;-62
2023/05/23 09:24:40;;;;;;;1999.90;999.90;;;;;;;25.60;100.00;95206.88;5049930;28;20215;-63
2023/05/23 09:27:06;;;;;;;1999.90;999.90;;;;;;;25.12;100.00;95217.38;5065865;28;20212;-63
2023/05/23 09:29:31;;;;;;;1999.90;999.90;;;;;;;24.92;100.00;95217.56;5049087;28;20214;-63
2023/05/23 09:32:13;;;;;;;1999.90;999.90;;;;;;;24.88;100.00;95217.03;5048912;28;20222;-63
2023/05/23 09:34:58;;;;;;;1999.90;999.90;;;;;;;24.38;100.00;95216.72;5048438;28;20201;-62
2023/05/23 09:37:31;;;;;;;1999.90;999.90;;;;;;;24.21;100.00;95215.03;5065853;28;20194;-64
2023/05/23 09:40:01;;;;;;;1999.90;999.90;;;;;;;24.40;100.00;95202.25;5049415;28;20200;-63
2023/05/23 09:42:33;;;;;;;1999.90;999.90;;;;;;;24.82;100.00;95202.25;5065774;28;20194;-63
2023/05/23 09:44:58;;;;;;;1999.90;999.90;;;;;;;24.57;100.00;95203.88;5048962;28;20193;-62
2023/05/23 09:47:25;;;;;;;1999.90;999.90;;;;;;;24.18;100.00;95207.69;5049265;28;20193;-63
2023/05/23 09:49:50;;;;;;;1999.90;999.90;;;;;;;24.15;100.00;95212.22;5065257;28;20190;-63
2023/05/23 09:52:15;;;;;;;1999.90;999.90;;;;;;;23.78;100.00;95216.94;5065257;28;20219;-63
2023/05/23 09:54:42;;;;;;;1999.90;999.90;;;;;;;23.66;100.00;95214.53;5049129;28;20212;-64
2023/05/23 09:57:12;;;;;;;1999.90;999.90;;;;;;;23.61;100.00;95216.03;5065365;28;20190;-64
2023/05/23 09:59:48;;;;;;;1999.90;999.90;;;;;;;23.35;100.00;95214.47;5065675;28;20193;-64
2023/05/23 10:02:15;;;;;;;1999.90;999.90;;;;;;;23.03;100.00;95221.94;5065650;28;20231;-62
2023/05/23 10:04:42;;;;;;;1999.90;999.90;;;;;;;23.06;100.00;95220.19;5065268;28;20221;-62
2023/05/23 10:07:16;;;;;;;1999.90;999.90;;;;;;;23.07;100.00;95222.50;5065579;28;20190;-63
2023/05/23 10:09:47;;;;;;;1999.90;999.90;;;;;;;23.25;100.00;95215.88;5064987;28;20196;-62
2023/05/23 10:12:18;;;;;;;1999.90;999.90;;;;;;;23.38;100.00;95205.13;5065144;28;20213;-64
2023/05/23 10:14:51;;;;;;;1999.90;999.90;;;;;;;23.33;100.00;95205.81;5048304;28;20209;-63
2023/05/23 10:17:20;;;;;;;1999.90;999.90;;;;;;;23.39;100.00;95199.06;5064759;28;20197;-66
2023/05/23 10:19:56;;;;;;;1999.90;999.90;;;;;;;23.78;100.00;95199.44;5064842;28;20202;-65
2023/05/23 10:22:23;;;;;;;1999.90;999.90;;;;;;;24.06;100.00;95201.25;5065483;28;20193;-63
2023/05/23 10:24:49;;;;;;;1999.90;999.90;;;;;;;23.98;100.00;95202.19;5064661;28;20196;-63
2023/05/23 10:27:14;;;;;;;1999.90;999.90;;;;;;;23.87;100.00;95202.84;5048488;28;20933;-62
2023/05/23 10:29:40;;;;;;;1999.90;999.90;;;;;;;23.65;100.00;95204.66;5047918;28;20285;-63
2023/05/23 10:32:06;;;;;;;1999.90;999.90;;;;;;;23.30;100.00;95199.22;5064554;28;20230;-64
2023/05/23 10:35:16;;;;;;;1999.90;999.90;;;;;;;23.10;100.00;95204.03;5048006;28;20205;-63
2023/05/23 10:37:54;;;;;;;1999.90;999.90;;;;;;;23.18;100.00;95199.56;5047911;28;20273;-58
2023/05/23 10:40:20;;;;;;;1999.90;999.90;;;;;;;22.91;100.00;95202.78;5064509;28;20225;-60
2023/05/23 10:42:55;;;;;;;1999.90;999.90;;;;;;;23.01;100.00;95199.34;5047923;28;20185;-59
2023/05/23 10:45:22;;;;;;;1999.90;999.90;;;;;;;23.09;100.00;95202.50;5064648;28;20225;-59